Terminal Aerodrome Forecast
Issued by NWS

Home | Current Version | Previous Version | Text Only | Print | Product List | Glossary On
Versions: 1 2 3 4 5 6 7 8 9 10 11 12 13 14 15 16 17 18 19 20 21 22 23
000
FTUS43 KSGF 281700
TAFJLN
TAF
KJLN 281724Z 2818/2918 20020G32KT P6SM SKC
     FM282300 19014KT P6SM SKC WS020/22050KT
     FM290800 19016KT 6SM BR SCT012 BKN250 WS020/22050KT
      TEMPO 2910/2914 BKN012
     FM291500 20019G29KT P6SM SCT030=

USA.gov is the U.S. government's official web portal to all federal, state and local government web resources and services.